Time;durP1;ratioP1;P1;durP2;ratioP2;P2;SDS_P1;SDS_P2;PMS_P1;PMS_P2;Temp;Humidity;BMP_temperature;BMP_pressure;BME280_temperature;BME280_humidity;BME280_pressure;Samples;Min_cycle;Max_cycle;Signal;HPM_P1;HPM_P2
2023/08/31 00:01:49;;;;;;;4.00;3.60;;;13.30;1.00;;;;;;6340383;22;20545;-56
2023/08/31 00:04:15;;;;;;;4.47;3.37;;;13.30;1.00;;;;;;6340463;22;20163;-57
2023/08/31 00:06:41;;;;;;;4.27;3.37;;;13.30;1.00;;;;;;6342386;22;20452;-56
2023/08/31 00:09:09;;;;;;;3.10;2.80;;;13.30;1.00;;;;;;6341568;22;20170;-57
2023/08/31 00:11:35;;;;;;;3.87;3.43;;;13.30;1.00;;;;;;6340251;22;20778;-56
2023/08/31 00:14:01;;;;;;;3.50;2.57;;;13.30;1.00;;;;;;6340326;22;20420;-55
2023/08/31 00:16:27;;;;;;;3.50;3.10;;;13.30;1.00;;;;;;6341067;22;20381;-57
2023/08/31 00:18:54;;;;;;;4.77;2.87;;;13.30;1.00;;;;;;6341322;22;20158;-57
2023/08/31 00:21:20;;;;;;;6.30;3.07;;;13.30;1.00;;;;;;6341143;22;20727;-58
2023/08/31 00:23:46;;;;;;;3.50;3.10;;;13.20;1.00;;;;;;6340329;22;20509;-54
2023/08/31 00:26:11;;;;;;;3.57;2.83;;;13.30;1.00;;;;;;6341525;22;20661;-57
2023/08/31 00:28:38;;;;;;;3.90;3.10;;;13.20;1.00;;;;;;6341556;22;20190;-57
2023/08/31 00:31:04;;;;;;;5.23;3.00;;;13.10;1.00;;;;;;6342020;22;20139;-58
2023/08/31 00:33:30;;;;;;;5.20;2.97;;;13.10;1.00;;;;;;6342006;22;20390;-57
2023/08/31 00:36:01;;;;;;;4.07;3.10;;;13.00;1.00;;;;;;6341398;22;20131;-57
2023/08/31 00:38:27;;;;;;;3.97;3.53;;;13.00;1.00;;;;;;6341453;22;20661;-56
2023/08/31 00:40:54;;;;;;;5.57;3.03;;;13.00;1.00;;;;;;6341725;22;20388;-55
2023/08/31 00:43:19;;;;;;;4.47;3.17;;;13.00;1.00;;;;;;6341564;22;20466;-55
2023/08/31 00:45:47;;;;;;;4.30;2.97;;;12.90;1.00;;;;;;6340752;22;20373;-55
2023/08/31 00:53:59;;;;;;;4.40;3.03;;;12.90;1.00;;;;;;6341688;22;20425;-56
2023/08/31 00:56:26;;;;;;;3.43;3.13;;;12.80;1.00;;;;;;6341451;22;20222;-56
2023/08/31 00:58:52;;;;;;;5.17;3.30;;;12.90;1.00;;;;;;6341214;22;20618;-57
2023/08/31 01:01:43;;;;;;;4.47;3.43;;;13.00;1.00;;;;;;6339189;22;20385;-56
2023/08/31 01:04:32;;;;;;;4.90;3.17;;;13.00;1.00;;;;;;6314589;22;20127;-53
2023/08/31 01:07:30;;;;;;;7.20;3.00;;;13.00;1.00;;;;;;6315096;22;20380;-55
2023/08/31 01:10:34;;;;;;;4.37;3.73;;;12.90;1.00;;;;;;6304092;22;20401;-53
2023/08/31 01:13:03;;;;;;;4.37;3.37;;;12.90;1.00;;;;;;6264621;22;20380;-56
2023/08/31 01:15:31;;;;;;;3.73;3.17;;;12.70;1.00;;;;;;6315533;22;20455;-54
2023/08/31 01:17:58;;;;;;;3.23;2.93;;;12.70;1.00;;;;;;6314214;22;20435;-56
2023/08/31 01:20:32;;;;;;;4.03;3.43;;;12.60;1.00;;;;;;6341455;22;20381;-56
2023/08/31 01:23:03;;;;;;;4.60;3.27;;;12.50;1.00;;;;;;6313755;22;20391;-57
2023/08/31 01:25:30;;;;;;;3.93;3.53;;;12.50;1.00;;;;;;6340490;22;20381;-56
2023/08/31 01:27:56;;;;;;;5.63;3.00;;;12.40;1.00;;;;;;6314754;22;20405;-56
2023/08/31 01:30:22;;;;;;;5.03;3.30;;;12.40;1.00;;;;;;6314402;22;20372;-56
2023/08/31 01:32:48;;;;;;;3.70;2.83;;;12.30;1.00;;;;;;6342010;22;20377;-55
2023/08/31 01:35:16;;;;;;;4.57;2.93;;;12.30;1.00;;;;;;6341589;22;20148;-55
2023/08/31 01:37:55;;;;;;;4.20;3.20;;;12.30;1.00;;;;;;6341982;22;20170;-57
2023/08/31 01:49:45;;;;;;;3.70;3.30;;;12.10;1.00;;;;;;6338946;22;20256;-57
2023/08/31 01:52:10;;;;;;;3.67;3.20;;;12.10;1.00;;;;;;6340034;22;20398;-58
2023/08/31 01:54:39;;;;;;;3.33;2.93;;;12.10;1.00;;;;;;6341015;22;20162;-57
2023/08/31 01:57:06;;;;;;;3.90;3.13;;;12.10;1.00;;;;;;6340580;22;20147;-55
2023/08/31 01:59:32;;;;;;;5.80;3.63;;;12.10;1.00;;;;;;6340542;22;20370;-56
2023/08/31 02:01:58;;;;;;;4.13;3.00;;;12.10;1.00;;;;;;6341515;22;20435;-56
2023/08/31 02:04:23;;;;;;;3.50;3.20;;;12.00;1.00;;;;;;6340956;22;20389;-56
2023/08/31 02:06:49;;;;;;;4.60;3.60;;;12.10;1.00;;;;;;6341525;22;20140;-54
2023/08/31 02:09:15;;;;;;;5.90;3.37;;;12.00;1.00;;;;;;6341246;22;20163;-57
2023/08/31 02:11:40;;;;;;;4.20;3.40;;;12.10;1.00;;;;;;6341662;22;20146;-56
2023/08/31 02:14:07;;;;;;;3.60;3.30;;;12.10;1.00;;;;;;6342099;22;20147;-57
2023/08/31 02:16:33;;;;;;;5.10;4.00;;;12.00;1.00;;;;;;6341594;22;20148;-55
2023/08/31 02:18:59;;;;;;;6.03;3.73;;;12.00;1.00;;;;;;6314623;22;20412;-57
2023/08/31 02:21:25;;;;;;;4.13;3.83;;;12.00;1.00;;;;;;6341716;22;20804;-57
2023/08/31 02:23:51;;;;;;;3.90;3.40;;;12.00;1.00;;;;;;6340956;22;20370;-58
2023/08/31 02:26:16;;;;;;;3.63;3.20;;;12.00;1.00;;;;;;6341182;22;20174;-56
2023/08/31 02:28:42;;;;;;;4.00;3.70;;;12.00;1.00;;;;;;6341608;22;20499;-55
2023/08/31 02:31:09;;;;;;;4.53;3.90;;;11.90;1.00;;;;;;6341139;22;20153;-57
2023/08/31 02:33:35;;;;;;;4.50;4.10;;;11.90;1.00;;;;;;6341105;22;20148;-57
2023/08/31 02:36:00;;;;;;;4.70;4.30;;;12.00;1.00;;;;;;6340884;22;20377;-57
2023/08/31 02:38:26;;;;;;;4.07;3.73;;;12.00;1.00;;;;;;6341553;22;20201;-56
2023/08/31 02:40:52;;;;;;;8.10;4.57;;;12.00;1.00;;;;;;6342273;22;20151;-57
2023/08/31 02:43:17;;;;;;;5.00;4.10;;;12.00;1.00;;;;;;6340789;22;20154;-55
2023/08/31 02:45:46;;;;;;;4.80;3.83;;;12.00;1.00;;;;;;6341112;22;20580;-54
2023/08/31 02:48:13;;;;;;;4.43;4.03;;;12.00;1.00;;;;;;6339896;22;20163;-57
2023/08/31 02:50:38;;;;;;;4.40;4.00;;;12.00;1.00;;;;;;6341310;22;20649;-57
2023/08/31 02:53:05;;;;;;;5.37;4.87;;;12.00;1.00;;;;;;6313615;22;20443;-57
2023/08/31 02:55:33;;;;;;;5.60;5.10;;;12.00;1.00;;;;;;6339750;22;20151;-56
2023/08/31 02:57:59;;;;;;;5.50;4.73;;;12.00;1.00;;;;;;6340496;22;20392;-56
2023/08/31 03:00:25;;;;;;;5.13;4.63;;;12.00;1.00;;;;;;6314679;22;20397;-57
2023/08/31 03:02:53;;;;;;;4.17;3.87;;;12.00;1.00;;;;;;6339437;22;20159;-56
2023/08/31 03:05:21;;;;;;;8.50;4.40;;;12.00;1.00;;;;;;6341058;22;20148;-56
2023/08/31 03:07:47;;;;;;;5.43;4.60;;;12.00;1.00;;;;;;6340897;22;20442;-56
2023/08/31 03:10:12;;;;;;;5.47;4.60;;;12.00;1.00;;;;;;6313430;22;20788;-57
2023/08/31 03:12:38;;;;;;;6.27;5.33;;;11.90;1.00;;;;;;6341334;22;20162;-57
2023/08/31 03:15:07;;;;;;;5.90;4.93;;;11.90;1.00;;;;;;6341028;22;20128;-57
2023/08/31 03:17:34;;;;;;;5.93;4.87;;;11.90;1.00;;;;;;6341307;22;20136;-58
2023/08/31 03:19:59;;;;;;;4.77;4.37;;;11.80;1.00;;;;;;6312892;22;20727;-56
2023/08/31 03:22:25;;;;;;;9.60;4.97;;;11.80;1.00;;;;;;6313608;22;20466;-58
2023/08/31 03:24:51;;;;;;;6.30;4.60;;;11.80;1.00;;;;;;6339621;22;20553;-58
2023/08/31 03:27:17;;;;;;;5.83;4.40;;;11.80;1.00;;;;;;6337986;22;20565;-58
2023/08/31 03:29:42;;;;;;;4.90;4.40;;;11.80;1.00;;;;;;6311865;22;20417;-57
2023/08/31 03:32:08;;;;;;;5.73;5.07;;;11.80;1.00;;;;;;6338664;22;20279;-56
2023/08/31 03:34:34;;;;;;;6.50;4.70;;;11.70;1.00;;;;;;6339050;22;20147;-57
2023/08/31 03:36:59;;;;;;;5.20;4.70;;;11.70;1.00;;;;;;6338670;22;20171;-56
2023/08/31 03:39:25;;;;;;;4.67;4.27;;;11.70;1.00;;;;;;6339404;22;20542;-54
2023/08/31 03:41:51;;;;;;;5.63;4.23;;;11.70;1.00;;;;;;6311587;22;20222;-56
2023/08/31 03:44:16;;;;;;;6.90;4.63;;;11.70;1.00;;;;;;6340071;22;20381;-58
2023/08/31 03:46:43;;;;;;;7.13;4.97;;;11.70;1.00;;;;;;6339901;22;20188;-58
2023/08/31 03:49:08;;;;;;;6.13;5.23;;;11.70;1.00;;;;;;6341078;22;20199;-57
2023/08/31 03:51:34;;;;;;;5.67;5.07;;;11.70;1.00;;;;;;6341512;22;20385;-57
2023/08/31 03:54:00;;;;;;;7.17;4.90;;;11.70;1.00;;;;;;6341377;22;20357;-57
2023/08/31 03:56:26;;;;;;;7.80;4.77;;;11.80;1.00;;;;;;6341439;22;20135;-57
2023/08/31 03:58:52;;;;;;;5.63;4.90;;;11.80;1.00;;;;;;6314526;22;20174;-55
2023/08/31 04:01:18;;;;;;;5.30;4.47;;;11.70;1.00;;;;;;6340869;22;20429;-53
2023/08/31 04:03:43;;;;;;;4.70;4.30;;;11.70;1.00;;;;;;6341611;22;20181;-57
2023/08/31 04:06:09;;;;;;;5.47;4.47;;;11.70;1.00;;;;;;6341858;22;20218;-56
2023/08/31 04:08:34;;;;;;;7.20;4.20;;;11.80;1.00;;;;;;6340890;22;20579;-57
2023/08/31 04:11:00;;;;;;;6.80;5.23;;;11.80;1.00;;;;;;6339913;22;20143;-57
2023/08/31 04:13:26;;;;;;;5.83;4.13;;;11.80;1.00;;;;;;6314235;22;20558;-56
2023/08/31 04:15:52;;;;;;;4.73;4.23;;;11.80;1.00;;;;;;6341577;22;20143;-54
2023/08/31 04:18:18;;;;;;;5.97;4.60;;;11.80;1.00;;;;;;6340884;22;20159;-57
2023/08/31 04:20:51;;;;;;;7.77;5.00;;;11.80;1.00;;;;;;6340484;22;20430;-57
2023/08/31 04:23:20;;;;;;;5.57;4.70;;;11.80;1.00;;;;;;6341207;22;20182;-57
2023/08/31 04:25:47;;;;;;;8.77;5.33;;;11.80;1.00;;;;;;6341495;22;20393;-56
2023/08/31 04:28:13;;;;;;;7.97;5.27;;;11.80;1.00;;;;;;6341459;22;20440;-57
2023/08/31 04:30:40;;;;;;;7.57;5.07;;;11.80;1.00;;;;;;6340262;22;20854;-54
2023/08/31 04:33:06;;;;;;;8.70;5.60;;;11.80;1.00;;;;;;6313220;22;20360;-57
2023/08/31 04:35:32;;;;;;;7.40;5.60;;;11.70;1.00;;;;;;6313566;22;20401;-57
2023/08/31 04:37:58;;;;;;;5.43;4.37;;;11.70;1.00;;;;;;6341450;22;20412;-58
2023/08/31 04:40:24;;;;;;;5.90;5.30;;;11.70;1.00;;;;;;6340704;22;20151;-58
2023/08/31 04:42:50;;;;;;;7.23;5.03;;;11.60;1.00;;;;;;6314047;22;20412;-59
2023/08/31 04:45:16;;;;;;;6.57;5.40;;;11.60;1.00;;;;;;6341526;22;20186;-57
2023/08/31 04:47:42;;;;;;;8.80;5.97;;;11.60;1.00;;;;;;6341399;22;20354;-58
2023/08/31 04:50:08;;;;;;;6.20;5.60;;;11.60;1.00;;;;;;6314774;22;20186;-56
2023/08/31 04:52:34;;;;;;;5.07;4.57;;;11.60;1.00;;;;;;6341168;22;20392;-58
2023/08/31 04:55:01;;;;;;;6.27;5.50;;;11.60;1.00;;;;;;6339939;22;20385;-54
2023/08/31 04:57:26;;;;;;;6.00;5.30;;;11.60;1.00;;;;;;6339932;22;20155;-57
2023/08/31 04:59:52;;;;;;;5.83;4.70;;;11.60;1.00;;;;;;6340106;22;20361;-58
2023/08/31 05:02:18;;;;;;;6.27;5.50;;;11.60;1.00;;;;;;6339086;22;20159;-57
2023/08/31 05:04:44;;;;;;;5.93;5.27;;;11.70;1.00;;;;;;6339977;22;20208;-59
2023/08/31 05:07:10;;;;;;;4.90;4.43;;;11.70;1.00;;;;;;6341551;22;20488;-58
2023/08/31 05:09:35;;;;;;;6.93;5.30;;;11.70;1.00;;;;;;6340289;22;20190;-59
2023/08/31 05:12:04;;;;;;;6.03;5.47;;;11.70;1.00;;;;;;6341536;22;20138;-58
2023/08/31 05:14:30;;;;;;;5.93;4.67;;;11.70;1.00;;;;;;6341169;22;20206;-59
2023/08/31 05:16:56;;;;;;;7.03;5.30;;;11.80;1.00;;;;;;6341225;22;20381;-58
2023/08/31 05:19:21;;;;;;;5.50;4.40;;;11.90;1.00;;;;;;6339875;22;20158;-56
2023/08/31 05:21:47;;;;;;;6.43;4.90;;;11.90;1.00;;;;;;6339167;22;20154;-58
2023/08/31 05:24:13;;;;;;;4.80;4.30;;;12.00;1.00;;;;;;6339227;22;20212;-56
2023/08/31 05:26:39;;;;;;;5.03;4.50;;;12.00;1.00;;;;;;6338348;22;20761;-58
2023/08/31 05:29:05;;;;;;;6.77;5.53;;;12.00;1.00;;;;;;6339180;22;20232;-56
2023/08/31 05:31:31;;;;;;;6.83;5.20;;;12.10;1.00;;;;;;6285883;22;20397;-57
2023/08/31 05:33:57;;;;;;;5.57;4.50;;;12.10;1.00;;;;;;6340055;22;20144;-57
2023/08/31 05:36:22;;;;;;;6.07;4.97;;;12.20;1.00;;;;;;6339295;22;20772;-56
2023/08/31 05:38:48;;;;;;;13.90;5.83;;;12.30;1.00;;;;;;6340492;22;20131;-53
2023/08/31 05:41:13;;;;;;;7.70;5.13;;;12.40;1.00;;;;;;6312008;22;20534;-56
2023/08/31 05:43:42;;;;;;;5.50;5.00;;;12.40;1.00;;;;;;6340172;22;20151;-57
2023/08/31 05:46:08;;;;;;;7.37;5.60;;;12.50;1.00;;;;;;6311351;22;20637;-57
2023/08/31 05:48:35;;;;;;;5.53;5.00;;;12.50;1.00;;;;;;6337636;22;20950;-56
2023/08/31 05:51:02;;;;;;;6.57;4.90;;;12.50;1.00;;;;;;6336761;22;20356;-56
2023/08/31 05:53:31;;;;;;;6.87;4.80;;;12.50;1.00;;;;;;6335983;22;20652;-57
2023/08/31 05:56:03;;;;;;;8.80;5.00;;;12.60;1.00;;;;;;6337797;22;20483;-57
2023/08/31 05:58:32;;;;;;;5.47;4.50;;;12.70;1.00;;;;;;6338387;22;20381;-55
2023/08/31 06:00:57;;;;;;;5.40;4.90;;;12.80;1.00;;;;;;6338506;22;20454;-55
2023/08/31 06:03:23;;;;;;;6.23;4.57;;;12.90;1.00;;;;;;6337764;22;20392;-54
2023/08/31 06:05:48;;;;;;;6.20;4.40;;;13.00;1.00;;;;;;6337919;22;20223;-56
2023/08/31 06:08:14;;;;;;;5.50;5.00;;;12.90;1.00;;;;;;6339303;22;20257;-52
2023/08/31 06:10:39;;;;;;;7.00;5.43;;;13.10;1.00;;;;;;6311077;22;20151;-58
2023/08/31 06:13:05;;;;;;;5.90;4.70;;;13.20;1.00;;;;;;6339529;22;20147;-56
2023/08/31 06:15:31;;;;;;;5.70;4.90;;;13.20;1.00;;;;;;6337981;22;20206;-55
2023/08/31 06:17:57;;;;;;;7.03;5.23;;;13.20;1.00;;;;;;6336704;22;20357;-55
2023/08/31 06:20:23;;;;;;;6.00;4.63;;;13.30;1.00;;;;;;6337708;22;20158;-54
2023/08/31 06:22:49;;;;;;;6.13;4.43;;;13.40;1.00;;;;;;6337228;22;20233;-56
2023/08/31 06:25:16;;;;;;;5.10;4.40;;;13.60;1.00;;;;;;6336913;22;20385;-56
2023/08/31 06:27:45;;;;;;;6.93;4.07;;;13.70;99.90;;;;;;6337034;22;20147;-55
2023/08/31 06:30:15;;;;;;;8.00;4.67;;;13.80;99.90;;;;;;6335957;22;20411;-56
2023/08/31 06:32:45;;;;;;;6.30;5.07;;;14.00;99.90;;;;;;6337348;22;20748;-56
2023/08/31 06:35:15;;;;;;;6.50;3.87;;;14.00;99.90;;;;;;6337390;22;20381;-56
2023/08/31 06:37:40;;;;;;;5.60;4.23;;;14.10;99.90;;;;;;6310903;22;20393;-56
2023/08/31 06:40:08;;;;;;;7.50;3.80;;;14.20;99.90;;;;;;6337564;22;20373;-55
2023/08/31 06:42:34;;;;;;;6.07;3.47;;;14.20;99.90;;;;;;6309193;22;20440;-56
2023/08/31 06:45:00;;;;;;;4.40;3.80;;;14.30;99.90;;;;;;6338080;22;20891;-53
2023/08/31 06:47:25;;;;;;;4.70;4.20;;;14.40;99.90;;;;;;6338404;22;20357;-51
2023/08/31 06:49:52;;;;;;;4.87;3.60;;;14.50;99.90;;;;;;6338793;22;20467;-55
2023/08/31 06:52:18;;;;;;;5.53;3.83;;;14.40;45.80;;;;;;6339607;22;20148;-56
2023/08/31 06:54:44;;;;;;;9.73;4.30;;;14.40;99.90;;;;;;6311859;22;20383;-55
2023/08/31 06:57:11;;;;;;;4.33;3.77;;;14.50;97.80;;;;;;6337361;22;20167;-57
2023/08/31 06:59:37;;;;;;;4.30;3.33;;;14.60;5.40;;;;;;6338245;22;20151;-57
2023/08/31 07:02:03;;;;;;;4.90;3.30;;;14.70;1.00;;;;;;6339543;22;20643;-56
2023/08/31 07:04:29;;;;;;;5.27;3.53;;;14.80;1.00;;;;;;6338636;22;20170;-56
2023/08/31 07:06:54;;;;;;;5.70;2.93;;;15.00;99.90;;;;;;6338409;22;20484;-55
2023/08/31 07:09:20;;;;;;;4.17;2.93;;;15.20;99.90;;;;;;6337855;22;20179;-56
2023/08/31 07:11:46;;;;;;;4.70;3.60;;;15.30;99.90;;;;;;6310635;22;20458;-56
2023/08/31 07:14:11;;;;;;;5.80;3.63;;;15.40;1.00;;;;;;6337831;22;20143;-56
2023/08/31 07:16:37;;;;;;;5.53;3.80;;;15.40;99.90;;;;;;6337893;22;20404;-57
2023/08/31 07:19:02;;;;;;;4.00;2.83;;;15.50;99.90;;;;;;6337809;22;20147;-55
2023/08/31 07:21:28;;;;;;;5.70;3.10;;;15.50;99.90;;;;;;6336436;22;20151;-54
2023/08/31 07:23:54;;;;;;;7.93;3.37;;;15.50;99.90;;;;;;6336701;22;20159;-56
2023/08/31 07:26:20;;;;;;;5.60;3.33;;;15.80;99.90;;;;;;6339136;22;20441;-56
2023/08/31 07:28:47;;;;;;;3.47;2.60;;;15.90;99.90;;;;;;6286655;22;20437;-56
2023/08/31 07:31:13;;;;;;;6.50;3.10;;;16.10;1.00;;;;;;6338812;22;20373;-54
2023/08/31 07:33:38;;;;;;;5.77;3.30;;;16.30;1.00;;;;;;6338506;22;20377;-57
2023/08/31 07:36:05;;;;;;;5.47;2.93;;;16.50;99.90;;;;;;6341015;22;20810;-57
2023/08/31 07:38:31;;;;;;;3.90;2.50;;;16.80;99.90;;;;;;6342465;22;20192;-55
2023/08/31 07:40:57;;;;;;;3.67;2.73;;;17.00;99.90;;;;;;6341471;22;20393;-57
2023/08/31 07:43:23;;;;;;;4.37;3.03;;;17.00;1.00;;;;;;6340042;22;20385;-62
2023/08/31 07:45:49;;;;;;;5.20;2.97;;;17.30;99.90;;;;;;6341420;22;20387;-61
2023/08/31 07:48:15;;;;;;;4.80;3.50;;;17.60;99.90;;;;;;6343129;22;20455;-58
2023/08/31 07:50:41;;;;;;;6.30;2.90;;;17.40;1.00;;;;;;6316708;22;20369;-57
2023/08/31 07:53:07;;;;;;;4.57;2.53;;;17.90;99.90;;;;;;6341799;22;20391;-60
2023/08/31 07:55:33;;;;;;;5.80;2.73;;;18.00;1.00;;;;;;6341569;22;20733;-59
2023/08/31 07:57:59;;;;;;;7.43;3.60;;;18.00;99.90;;;;;;6341227;22;20747;-59
2023/08/31 08:00:24;;;;;;;5.17;3.23;;;17.80;99.90;;;;;;6339791;22;20577;-59
2023/08/31 08:02:50;;;;;;;4.93;3.40;;;18.20;99.90;;;;;;6311785;22;20131;-57
2023/08/31 08:05:15;;;;;;;7.07;3.37;;;18.40;1.00;;;;;;6310927;22;20216;-60
2023/08/31 08:07:42;;;;;;;3.63;2.77;;;18.50;1.00;;;;;;6337928;22;20161;-59
2023/08/31 08:10:09;;;;;;;5.23;2.77;;;18.90;1.00;;;;;;6339057;22;20154;-60
2023/08/31 08:12:39;;;;;;;7.17;2.57;;;19.50;99.90;;;;;;6341392;22;20631;-59
2023/08/31 08:15:07;;;;;;;2.90;2.20;;;19.80;99.80;;;;;;6340285;22;20365;-61
2023/08/31 08:17:32;;;;;;;5.83;2.10;;;20.40;95.30;;;;;;6341607;22;20949;-61
2023/08/31 08:19:58;;;;;;;6.07;2.20;;;20.90;26.70;;;;;;6339857;22;20381;-62
2023/08/31 08:22:25;;;;;;;3.83;2.43;;;21.60;26.50;;;;;;6340539;22;20500;-61
2023/08/31 08:24:50;;;;;;;5.17;2.47;;;22.30;1.00;;;;;;6311270;22;20163;-60
2023/08/31 08:27:17;;;;;;;3.73;2.60;;;22.30;1.00;;;;;;6341672;22;20381;-59
2023/08/31 08:29:43;;;;;;;4.70;2.67;;;22.20;1.00;;;;;;6340604;22;20182;-62
2023/08/31 08:40:22;;;;;;;3.60;2.37;;;21.30;1.00;;;;;;6345382;22;20269;-61
2023/08/31 08:42:49;;;;;;;3.70;2.40;;;21.40;1.00;;;;;;6340082;22;20148;-61
2023/08/31 08:45:15;;;;;;;4.53;2.80;;;20.80;1.00;;;;;;6312818;22;20354;-61
2023/08/31 08:47:46;;;;;;;4.80;2.73;;;20.40;1.00;;;;;;6341536;22;20378;-61
2023/08/31 08:50:12;;;;;;;4.27;2.20;;;20.40;1.00;;;;;;6342693;22;20377;-61
2023/08/31 08:52:39;;;;;;;5.43;2.63;;;20.00;1.00;;;;;;6340320;22;20434;-61
2023/08/31 08:55:08;;;;;;;4.33;2.90;;;19.30;1.00;;;;;;6338995;22;20424;-61
2023/08/31 08:57:34;;;;;;;4.93;3.03;;;19.20;1.00;;;;;;6312131;22;20472;-57
2023/08/31 09:00:00;;;;;;;4.37;3.03;;;19.10;1.00;;;;;;6336417;22;20358;-57
2023/08/31 09:02:26;;;;;;;4.73;2.97;;;19.10;1.00;;;;;;6338618;22;20366;-57
2023/08/31 09:04:54;;;;;;;4.23;2.23;;;19.60;1.00;;;;;;6337413;22;20191;-57
2023/08/31 09:07:21;;;;;;;3.23;2.27;;;19.90;1.00;;;;;;6337802;22;20155;-59
2023/08/31 09:09:51;;;;;;;6.33;2.87;;;20.30;1.00;;;;;;6336768;22;20566;-58
2023/08/31 09:12:17;;;;;;;4.90;2.30;;;19.80;1.00;;;;;;6335618;22;20386;-59
2023/08/31 09:14:43;;;;;;;5.30;2.47;;;19.70;1.00;;;;;;6336829;22;20446;-58
2023/08/31 09:17:08;;;;;;;3.33;2.20;;;20.20;1.00;;;;;;6339100;22;20776;-57
2023/08/31 09:19:34;;;;;;;7.03;2.53;;;20.90;1.00;;;;;;6338259;22;20544;-56
2023/08/31 09:22:00;;;;;;;5.37;2.73;;;20.80;1.00;;;;;;6337293;22;20147;-58
2023/08/31 09:24:26;;;;;;;5.20;2.80;;;20.90;1.00;;;;;;6337268;22;20481;-54
2023/08/31 09:26:58;;;;;;;4.30;2.57;;;21.40;1.00;;;;;;6335548;22;20157;-56
2023/08/31 09:29:24;;;;;;;5.13;2.60;;;21.70;1.00;;;;;;6337784;22;20202;-58
2023/08/31 09:31:49;;;;;;;6.17;2.93;;;21.80;1.00;;;;;;6340538;22;20475;-58
2023/08/31 09:34:16;;;;;;;3.80;2.50;;;21.70;1.00;;;;;;6338901;22;20392;-58
2023/08/31 09:36:42;;;;;;;3.13;2.77;;;21.30;1.00;;;;;;6339446;22;20212;-58
2023/08/31 09:39:09;;;;;;;5.00;2.93;;;20.50;1.00;;;;;;6339555;22;20412;-58
2023/08/31 09:41:35;;;;;;;4.80;2.90;;;20.30;1.00;;;;;;6340109;22;20981;-59
2023/08/31 09:44:18;;;;;;;4.80;2.47;;;20.60;1.00;;;;;;6338458;22;20377;-58
2023/08/31 09:46:45;;;;;;;3.40;2.73;;;20.60;1.00;;;;;;6338746;22;20385;-58
2023/08/31 09:49:14;;;;;;;4.50;2.60;;;20.70;1.00;;;;;;6337623;22;20484;-58
2023/08/31 09:51:44;;;;;;;3.70;2.50;;;20.20;1.00;;;;;;6310092;22;20369;-56
2023/08/31 09:54:13;;;;;;;7.10;2.67;;;19.60;1.00;;;;;;6338166;22;20484;-58
2023/08/31 09:56:41;;;;;;;4.67;2.30;;;19.00;1.00;;;;;;6338933;22;20381;-58
2023/08/31 09:59:08;;;;;;;3.20;2.03;;;19.30;1.00;;;;;;6339451;22;20877;-61
2023/08/31 10:01:34;;;;;;;5.00;2.37;;;19.80;1.00;;;;;;6311320;22;20458;-57
2023/08/31 10:03:59;;;;;;;4.60;2.60;;;20.10;1.00;;;;;;6338693;22;20448;-57
2023/08/31 10:06:26;;;;;;;2.73;2.40;;;20.00;1.00;;;;;;6337921;22;20139;-58
2023/08/31 10:08:51;;;;;;;3.50;2.43;;;20.20;1.00;;;;;;6338968;22;20413;-57
2023/08/31 10:11:18;;;;;;;5.73;2.53;;;19.60;1.00;;;;;;6336039;22;20446;-56
2023/08/31 10:13:44;;;;;;;4.60;2.30;;;19.80;1.00;;;;;;6336054;22;20392;-58
2023/08/31 10:16:11;;;;;;;5.97;2.30;;;19.80;1.00;;;;;;6336878;22;20361;-57
2023/08/31 10:18:37;;;;;;;5.23;2.87;;;19.80;1.00;;;;;;6336968;22;20373;-58
2023/08/31 10:21:03;;;;;;;3.03;2.20;;;19.70;1.00;;;;;;6309641;22;20391;-59
2023/08/31 10:23:29;;;;;;;3.77;2.57;;;19.70;1.00;;;;;;6336888;22;20152;-58
2023/08/31 10:25:55;;;;;;;4.40;2.73;;;19.40;1.00;;;;;;6308424;22;20377;-59
2023/08/31 10:28:25;;;;;;;6.00;2.37;;;19.40;1.00;;;;;;6335848;22;20209;-58
2023/08/31 10:31:04;;;;;;;5.43;4.30;;;19.30;1.00;;;;;;6336520;22;20128;-59
2023/08/31 10:33:38;;;;;;;4.70;2.73;;;19.50;1.00;;;;;;6337925;22;20377;-57
2023/08/31 10:36:09;;;;;;;7.17;2.57;;;19.40;1.00;;;;;;6336888;22;20373;-58
2023/08/31 10:38:35;;;;;;;3.77;2.40;;;19.80;1.00;;;;;;6309113;22;20470;-57
2023/08/31 10:41:01;;;;;;;4.97;2.87;;;20.40;1.00;;;;;;6337874;22;20436;-58
2023/08/31 10:43:26;;;;;;;5.67;2.60;;;21.60;1.00;;;;;;6337210;22;20147;-58
2023/08/31 10:45:52;;;;;;;4.27;2.50;;;21.80;1.00;;;;;;6337399;22;20139;-57
2023/08/31 10:48:17;;;;;;;10.37;2.80;;;21.50;1.00;;;;;;6339829;22;20253;-57
2023/08/31 10:50:47;;;;;;;3.17;2.30;;;22.10;1.00;;;;;;6339763;22;20155;-57
2023/08/31 10:53:12;;;;;;;4.77;2.80;;;23.60;1.00;;;;;;6338611;22;20177;-58
2023/08/31 10:55:56;;;;;;;5.33;2.67;;;23.90;1.00;;;;;;6337761;22;20377;-60
2023/08/31 10:58:21;;;;;;;5.13;2.77;;;24.40;1.00;;;;;;6338784;22;20557;-58
2023/08/31 11:00:56;;;;;;;3.70;2.67;;;24.10;1.00;;;;;;6312341;22;20373;-58
2023/08/31 11:03:22;;;;;;;7.10;2.70;;;22.70;1.00;;;;;;6312344;22;20153;-57
2023/08/31 11:05:52;;;;;;;6.43;2.90;;;22.90;1.00;;;;;;6339187;22;20464;-57
2023/08/31 11:08:24;;;;;;;4.17;2.83;;;23.50;1.00;;;;;;6336213;22;20175;-57
2023/08/31 11:10:51;;;;;;;4.80;2.67;;;25.00;1.00;;;;;;6337107;22;20464;-57
2023/08/31 11:13:19;;;;;;;4.70;3.40;;;26.60;1.00;;;;;;6309706;22;20404;-57
2023/08/31 11:15:47;;;;;;;3.10;2.30;;;28.30;1.00;;;;;;6337386;22;20357;-58
2023/08/31 11:18:17;;;;;;;3.30;2.60;;;29.40;1.00;;;;;;6309376;22;20534;-58
2023/08/31 11:20:43;;;;;;;4.80;2.80;;;28.30;1.00;;;;;;6337312;22;21002;-59
2023/08/31 11:23:09;;;;;;;4.53;2.60;;;26.90;1.00;;;;;;6337084;22;20377;-57
2023/08/31 11:25:35;;;;;;;5.07;3.03;;;25.20;1.00;;;;;;6337544;22;20480;-57
2023/08/31 11:28:04;;;;;;;5.67;2.80;;;24.20;1.00;;;;;;6338053;22;20353;-58
2023/08/31 11:30:33;;;;;;;3.23;2.60;;;23.70;1.00;;;;;;6337843;22;20482;-57
2023/08/31 11:33:06;;;;;;;7.40;2.83;;;23.80;1.00;;;;;;6338669;22;20380;-58
2023/08/31 11:35:43;;;;;;;4.40;2.63;;;24.30;1.00;;;;;;6337728;22;20457;-58
2023/08/31 11:38:09;;;;;;;3.30;2.60;;;25.10;1.00;;;;;;6311131;22;20385;-57
2023/08/31 11:40:35;;;;;;;4.93;3.20;;;26.10;1.00;;;;;;6338726;22;20441;-56
2023/08/31 11:43:07;;;;;;;3.40;2.47;;;27.50;1.00;;;;;;6337183;22;20357;-58
2023/08/31 11:45:34;;;;;;;6.93;2.60;;;28.10;1.00;;;;;;6309886;22;20385;-58
2023/08/31 11:48:00;;;;;;;3.50;2.60;;;28.50;1.00;;;;;;6311417;22;20484;-57
2023/08/31 11:50:26;;;;;;;3.23;2.63;;;29.10;1.00;;;;;;6338497;22;20393;-59
2023/08/31 11:52:53;;;;;;;3.90;2.50;;;28.20;1.00;;;;;;6337053;22;20598;-58
2023/08/31 11:55:19;;;;;;;4.17;3.40;;;26.70;1.00;;;;;;6335838;22;20360;-58
2023/08/31 11:57:51;;;;;;;4.60;2.93;;;26.50;1.00;;;;;;6337850;22;20838;-58
2023/08/31 12:00:19;;;;;;;5.53;3.23;;;26.10;1.00;;;;;;6339403;22;20149;-57
2023/08/31 12:02:48;;;;;;;4.97;2.90;;;26.10;1.00;;;;;;6338206;22;20363;-58
2023/08/31 12:05:14;;;;;;;5.27;2.77;;;26.30;1.00;;;;;;6336925;22;20377;-56
2023/08/31 12:07:41;;;;;;;3.83;2.30;;;27.80;1.00;;;;;;6309549;22;20377;-58
2023/08/31 12:10:08;;;;;;;4.70;2.60;;;28.70;1.00;;;;;;6309231;22;20483;-56
2023/08/31 12:12:34;;;;;;;5.60;2.60;;;28.20;1.00;;;;;;6337443;22;20470;-57
2023/08/31 12:15:05;;;;;;;4.40;2.47;;;27.40;1.00;;;;;;6336412;22;20390;-59
2023/08/31 12:17:31;;;;;;;5.20;3.33;;;28.20;1.00;;;;;;6337806;22;20392;-57
2023/08/31 12:20:04;;;;;;;5.43;2.80;;;28.70;1.00;;;;;;6336747;22;20826;-57
2023/08/31 12:22:30;;;;;;;4.43;2.40;;;29.50;1.00;;;;;;6310634;22;20167;-60
2023/08/31 12:24:56;;;;;;;4.63;3.23;;;28.90;1.00;;;;;;6339338;22;20671;-59
2023/08/31 12:27:21;;;;;;;2.83;2.03;;;28.80;1.00;;;;;;6312825;22;20178;-59
2023/08/31 12:29:47;;;;;;;3.90;2.60;;;29.20;1.00;;;;;;6339276;22;20237;-58
2023/08/31 12:32:12;;;;;;;3.57;2.97;;;28.80;1.00;;;;;;6336687;22;20166;-59
2023/08/31 12:34:38;;;;;;;7.30;3.23;;;29.10;1.00;;;;;;6338550;22;20458;-57
2023/08/31 12:37:04;;;;;;;3.10;2.30;;;29.40;1.00;;;;;;6338317;22;20159;-57
2023/08/31 12:39:30;;;;;;;3.33;2.50;;;29.70;1.00;;;;;;6338336;22;20215;-59
2023/08/31 12:41:56;;;;;;;4.57;3.00;;;28.70;1.00;;;;;;6339952;22;20800;-56
2023/08/31 12:44:22;;;;;;;3.23;2.37;;;28.00;1.00;;;;;;6311549;22;20367;-57
2023/08/31 12:46:47;;;;;;;3.20;2.90;;;26.90;1.00;;;;;;6338098;22;20154;-58
2023/08/31 12:49:13;;;;;;;3.47;2.53;;;25.50;1.00;;;;;;6337749;22;20195;-57
2023/08/31 12:51:38;;;;;;;4.03;2.50;;;24.70;1.00;;;;;;6337793;22;20158;-62
2023/08/31 12:54:04;;;;;;;5.10;3.17;;;24.10;1.00;;;;;;6338926;22;20498;-58
2023/08/31 12:56:30;;;;;;;3.80;2.20;;;23.60;1.00;;;;;;6338285;22;20147;-56
2023/08/31 12:58:55;;;;;;;3.70;2.47;;;23.20;1.00;;;;;;6336917;22;20607;-57
2023/08/31 13:01:22;;;;;;;5.70;2.70;;;22.90;1.00;;;;;;6338917;22;20542;-58
2023/08/31 13:03:48;;;;;;;4.23;2.50;;;22.70;1.00;;;;;;6338090;22;20147;-58
2023/08/31 13:06:16;;;;;;;4.30;2.50;;;22.10;1.00;;;;;;6311365;22;20407;-58
2023/08/31 13:08:43;;;;;;;3.00;2.00;;;21.70;1.00;;;;;;6310558;22;20214;-59
2023/08/31 13:11:09;;;;;;;4.10;2.60;;;21.50;1.00;;;;;;6336573;22;20734;-58
2023/08/31 13:13:36;;;;;;;6.10;3.10;;;21.40;1.00;;;;;;6309359;22;20385;-57
2023/08/31 13:16:02;;;;;;;4.00;2.33;;;21.50;1.00;;;;;;6336118;22;20388;-59
2023/08/31 13:18:28;;;;;;;5.00;2.33;;;21.90;1.00;;;;;;6337839;22;20442;-59